Bookmark and Share
Track history (hours):
 

Wolthusen

Last reported at 2014-Mar-22 19:58 UTC. Time now 2014-Apr-21 03:05 UTC.
Position N 36°53' E 013°24'.
Warning: this ship's position is 29 days out of date.

Length 90 m; draft 4.2 m.

Type: Cargo ship. MMSI: 304010620.

NotesDate/timePositionNaut miles runAvg speedWind from/ knotsBaromVisibWave heightAir tempDewpointWater temp
2014-Mar-22 19:58N 36°53' E 013°24'9811.4
2014-Mar-22 11:22N 37°18' E 011°25'911.1
2014-Mar-22 10:33N 37°21' E 011°14'1110.8
2014-Mar-22 09:33N 37°24' E 011°02'1111.1
2014-Mar-22 08:33N 37°27' E 010°48'1111.5
2014-Mar-22 07:34N 37°29' E 010°34'  
2014-Mar-19 10:33N 36°02' W 005°11'1010.0
2014-Mar-19 09:33N 36°06' W 005°22'1 0.3
2014-Mar-19 06:33N 36°07' W 005°22'8 7.8
2014-Mar-19 05:33N 35°59' W 005°21'1212.0
2014-Mar-19 04:32N 35°55' W 005°36'7310.5
2014-Mar-18 21:33N 36°10' W 007°04'3210.7
2014-Mar-18 18:32N 36°18' W 007°43'2211.1
2014-Mar-18 16:33N 36°22' W 008°10'1110.9
2014-Mar-18 15:33N 36°25' W 008°23'1110.8
2014-Mar-18 14:33N 36°27' W 008°36'1110.8
2014-Mar-18 13:33N 36°29' W 008°50'1110.9
2014-Mar-18 12:33N 36°32' W 009°03'3510.2
2014-Mar-18 09:06N 36°56' W 009°34'1111.3
2014-Mar-18 08:08N 37°07' W 009°33'811.1
2014-Mar-18 07:24N 37°15' W 009°32'1310.6
2014-Mar-18 06:09N 37°29' W 009°31'610.7
2014-Mar-18 05:33N 37°35' W 009°30'1210.9
2014-Mar-18 04:27N 37°47' W 009°29'1010.7
2014-Mar-18 03:33N 37°57' W 009°28'1110.8
2014-Mar-18 02:33N 38°07' W 009°26'1111.1
2014-Mar-18 01:33N 38°19' W 009°25'1510.8
2014-Mar-18 00:09N 38°34' W 009°23'610.4
2014-Mar-17 23:33N 38°39' W 009°20'9 9.2
2014-Mar-17 22:34N 38°42' W 009°08'4 3.4
2014-Mar-17 21:32N 38°40' W 009°04'0 0.0
2014-Mar-17 20:32N 38°40' W 009°04'0 0.0
2014-Mar-17 19:29N 38°40' W 009°04'0 0.0
2014-Mar-17 18:32N 38°40' W 009°04'0 0.0
2014-Mar-17 17:32N 38°40' W 009°04'0 0.0
2014-Mar-17 16:32N 38°40' W 009°04'0 0.0
2014-Mar-17 15:32N 38°40' W 009°04'0 0.0
2014-Mar-17 14:32N 38°40' W 009°04'0 0.0
2014-Mar-17 13:32N 38°40' W 009°04'0 0.0
2014-Mar-17 12:32N 38°40' W 009°04'0 0.0
2014-Mar-17 11:32N 38°40' W 009°04'0 0.0
2014-Mar-17 10:32N 38°40' W 009°04'0 0.0
2014-Mar-17 09:32N 38°40' W 009°04'0 0.0
2014-Mar-17 08:32N 38°40' W 009°04'0 0.0
2014-Mar-17 07:32N 38°40' W 009°04'0 0.0
2014-Mar-17 06:32N 38°40' W 009°04'0 0.0
2014-Mar-17 05:32N 38°40' W 009°04'0 0.0
2014-Mar-17 04:32N 38°40' W 009°04'0 0.0
2014-Mar-17 03:32N 38°40' W 009°04'0 0.0
2014-Mar-17 02:29N 38°40' W 009°04'0 0.0
2014-Mar-17 01:32N 38°40' W 009°04'0 0.0
2014-Mar-17 00:32N 38°40' W 009°04'0 0.0
2014-Mar-16 23:32N 38°40' W 009°04'0 0.0
2014-Mar-16 19:32N 38°40' W 009°04'0 0.0
2014-Mar-16 18:32N 38°40' W 009°04'0 0.0
2014-Mar-16 17:32N 38°40' W 009°04'0 0.0
2014-Mar-16 16:32N 38°40' W 009°04'0 0.0
2014-Mar-16 15:32N 38°40' W 009°04'0 0.0
2014-Mar-16 13:32N 38°40' W 009°04'0 0.0
2014-Mar-16 12:32N 38°40' W 009°04'0 0.0
2014-Mar-16 11:32N 38°40' W 009°04'0 0.0
2014-Mar-16 10:32N 38°40' W 009°04'0 0.0
2014-Mar-16 09:32N 38°40' W 009°04'0 0.0
2014-Mar-16 08:32N 38°40' W 009°04'0 0.0
2014-Mar-16 07:32N 38°40' W 009°04'0 0.0
2014-Mar-16 06:32N 38°40' W 009°04'0 0.0
2014-Mar-16 05:32N 38°40' W 009°04'0 0.0
2014-Mar-16 04:32N 38°40' W 009°04'0 0.0
2014-Mar-16 03:32N 38°40' W 009°04'0 0.0
2014-Mar-16 02:32N 38°40' W 009°04'0 0.0
2014-Mar-16 01:32N 38°40' W 009°04'0 0.2
2014-Mar-16 00:33N 38°40' W 009°05'8 8.1
2014-Mar-15 23:34N 38°41' W 009°15'5 4.7
2014-Mar-15 22:30N 38°39' W 009°21'3 0.3
2014-Mar-15 11:33N 38°41' W 009°24'0 0.0
2014-Mar-15 03:27N 38°41' W 009°24'0 0.0
2014-Mar-15 02:33N 38°41' W 009°24'0 0.0
2014-Mar-15 00:30N 38°41' W 009°24'6 6.5
2014-Mar-14 23:32N 38°34' W 009°24'1010.3
2014-Mar-14 22:31N 38°24' W 009°24'1010.3
2014-Mar-14 21:33N 38°14' W 009°23'1010.0
2014-Mar-14 20:33N 38°04' W 009°23'1010.1
2014-Mar-14 19:33N 37°54' W 009°22'2110.3
2014-Mar-14 17:33N 37°33' W 009°21'403 9.1
2014-Mar-12 21:12N 37°20' W 000°54'711.1
2014-Mar-12 20:34N 37°25' W 000°48'  

Dump ship's entire track history

sailing weather and tide predictions

Wolthusen — V2AK7 — position and weather